sensor_id;sensor_type;location;lat;lon;timestamp;P1;durP1;ratioP1;P2;durP2;ratioP2
12271;SDS011;6198;51.446;6.698;2024-03-08T00:02:23;24.53;;;16.30;;
12271;SDS011;6198;51.446;6.698;2024-03-08T00:04:49;25.27;;;15.47;;
12271;SDS011;6198;51.446;6.698;2024-03-08T00:07:15;24.27;;;16.07;;
12271;SDS011;6198;51.446;6.698;2024-03-08T00:09:41;24.00;;;15.50;;
12271;SDS011;6198;51.446;6.698;2024-03-08T00:12:07;21.27;;;15.40;;
12271;SDS011;6198;51.446;6.698;2024-03-08T00:14:33;23.07;;;15.70;;
12271;SDS011;6198;51.446;6.698;2024-03-08T00:17:00;23.93;;;14.87;;
12271;SDS011;6198;51.446;6.698;2024-03-08T00:19:26;23.63;;;15.53;;
12271;SDS011;6198;51.446;6.698;2024-03-08T00:21:52;21.03;;;14.80;;
12271;SDS011;6198;51.446;6.698;2024-03-08T00:24:18;24.83;;;16.50;;
12271;SDS011;6198;51.446;6.698;2024-03-08T00:26:49;23.60;;;16.10;;
12271;SDS011;6198;51.446;6.698;2024-03-08T00:29:15;22.43;;;16.10;;
12271;SDS011;6198;51.446;6.698;2024-03-08T00:31:41;23.50;;;16.23;;
12271;SDS011;6198;51.446;6.698;2024-03-08T00:36:35;23.90;;;16.67;;
12271;SDS011;6198;51.446;6.698;2024-03-08T00:39:01;23.63;;;15.97;;
12271;SDS011;6198;51.446;6.698;2024-03-08T00:41:31;20.67;;;14.47;;
12271;SDS011;6198;51.446;6.698;2024-03-08T00:43:57;24.07;;;16.43;;
12271;SDS011;6198;51.446;6.698;2024-03-08T00:46:23;27.90;;;16.63;;
12271;SDS011;6198;51.446;6.698;2024-03-08T00:48:49;24.53;;;17.80;;
12271;SDS011;6198;51.446;6.698;2024-03-08T00:51:15;24.40;;;15.43;;
12271;SDS011;6198;51.446;6.698;2024-03-08T00:53:41;24.93;;;17.13;;
12271;SDS011;6198;51.446;6.698;2024-03-08T00:56:08;26.63;;;17.83;;
12271;SDS011;6198;51.446;6.698;2024-03-08T00:58:37;25.00;;;16.30;;
12271;SDS011;6198;51.446;6.698;2024-03-08T01:01:03;23.97;;;17.03;;
12271;SDS011;6198;51.446;6.698;2024-03-08T01:03:30;22.37;;;16.77;;
12271;SDS011;6198;51.446;6.698;2024-03-08T01:05:57;23.50;;;16.03;;
12271;SDS011;6198;51.446;6.698;2024-03-08T01:08:26;24.37;;;16.23;;
12271;SDS011;6198;51.446;6.698;2024-03-08T01:10:52;26.63;;;16.43;;
12271;SDS011;6198;51.446;6.698;2024-03-08T01:13:18;23.93;;;17.10;;
12271;SDS011;6198;51.446;6.698;2024-03-08T01:15:44;25.20;;;17.30;;
12271;SDS011;6198;51.446;6.698;2024-03-08T01:18:11;28.33;;;18.23;;
12271;SDS011;6198;51.446;6.698;2024-03-08T01:20:37;24.17;;;17.33;;
12271;SDS011;6198;51.446;6.698;2024-03-08T01:23:05;26.77;;;17.80;;
12271;SDS011;6198;51.446;6.698;2024-03-08T01:25:32;22.73;;;16.47;;
12271;SDS011;6198;51.446;6.698;2024-03-08T01:27:58;22.43;;;13.87;;
12271;SDS011;6198;51.446;6.698;2024-03-08T01:30:24;24.60;;;16.67;;
12271;SDS011;6198;51.446;6.698;2024-03-08T01:32:50;27.37;;;16.80;;
12271;SDS011;6198;51.446;6.698;2024-03-08T01:35:16;25.73;;;17.43;;
12271;SDS011;6198;51.446;6.698;2024-03-08T01:37:43;27.00;;;18.57;;
12271;SDS011;6198;51.446;6.698;2024-03-08T01:40:09;27.57;;;18.97;;
12271;SDS011;6198;51.446;6.698;2024-03-08T01:42:35;24.23;;;17.30;;
12271;SDS011;6198;51.446;6.698;2024-03-08T01:45:07;28.73;;;18.70;;
12271;SDS011;6198;51.446;6.698;2024-03-08T01:47:33;28.33;;;17.70;;
12271;SDS011;6198;51.446;6.698;2024-03-08T01:50:00;21.13;;;14.07;;
12271;SDS011;6198;51.446;6.698;2024-03-08T01:52:26;22.53;;;15.00;;
12271;SDS011;6198;51.446;6.698;2024-03-08T01:54:53;26.77;;;16.73;;
12271;SDS011;6198;51.446;6.698;2024-03-08T01:57:19;31.00;;;18.93;;
12271;SDS011;6198;51.446;6.698;2024-03-08T01:59:45;25.80;;;18.47;;
12271;SDS011;6198;51.446;6.698;2024-03-08T02:02:11;22.70;;;15.20;;
12271;SDS011;6198;51.446;6.698;2024-03-08T02:04:40;29.10;;;18.63;;
12271;SDS011;6198;51.446;6.698;2024-03-08T02:07:06;24.93;;;16.90;;
12271;SDS011;6198;51.446;6.698;2024-03-08T02:09:32;25.40;;;16.97;;
12271;SDS011;6198;51.446;6.698;2024-03-08T02:11:58;25.77;;;17.17;;
12271;SDS011;6198;51.446;6.698;2024-03-08T02:14:24;27.83;;;18.70;;
12271;SDS011;6198;51.446;6.698;2024-03-08T02:16:50;22.60;;;17.43;;
12271;SDS011;6198;51.446;6.698;2024-03-08T02:19:16;23.83;;;16.10;;
12271;SDS011;6198;51.446;6.698;2024-03-08T02:21:42;27.37;;;18.97;;
12271;SDS011;6198;51.446;6.698;2024-03-08T02:24:11;24.00;;;16.93;;
12271;SDS011;6198;51.446;6.698;2024-03-08T02:26:37;24.70;;;18.03;;
12271;SDS011;6198;51.446;6.698;2024-03-08T02:29:03;27.20;;;17.53;;
12271;SDS011;6198;51.446;6.698;2024-03-08T02:31:30;25.47;;;18.97;;
12271;SDS011;6198;51.446;6.698;2024-03-08T02:33:56;23.73;;;17.20;;
12271;SDS011;6198;51.446;6.698;2024-03-08T02:36:22;26.43;;;18.67;;
12271;SDS011;6198;51.446;6.698;2024-03-08T02:38:48;26.70;;;18.83;;
12271;SDS011;6198;51.446;6.698;2024-03-08T02:41:14;24.33;;;18.33;;
12271;SDS011;6198;51.446;6.698;2024-03-08T02:43:39;29.90;;;19.33;;
12271;SDS011;6198;51.446;6.698;2024-03-08T02:46:06;29.37;;;18.57;;
12271;SDS011;6198;51.446;6.698;2024-03-08T02:48:32;25.00;;;19.03;;
12271;SDS011;6198;51.446;6.698;2024-03-08T02:50:58;27.60;;;19.67;;
12271;SDS011;6198;51.446;6.698;2024-03-08T02:53:23;26.67;;;17.70;;
12271;SDS011;6198;51.446;6.698;2024-03-08T02:55:49;29.90;;;19.33;;
12271;SDS011;6198;51.446;6.698;2024-03-08T02:58:15;30.53;;;19.93;;
12271;SDS011;6198;51.446;6.698;2024-03-08T03:00:41;26.20;;;18.23;;
12271;SDS011;6198;51.446;6.698;2024-03-08T03:03:09;23.97;;;14.60;;
12271;SDS011;6198;51.446;6.698;2024-03-08T03:05:35;27.93;;;17.63;;
12271;SDS011;6198;51.446;6.698;2024-03-08T03:08:01;29.50;;;18.50;;
12271;SDS011;6198;51.446;6.698;2024-03-08T03:10:28;25.80;;;18.80;;
12271;SDS011;6198;51.446;6.698;2024-03-08T03:12:54;26.40;;;16.87;;
12271;SDS011;6198;51.446;6.698;2024-03-08T03:15:20;26.03;;;18.10;;
12271;SDS011;6198;51.446;6.698;2024-03-08T03:17:47;31.67;;;18.37;;
12271;SDS011;6198;51.446;6.698;2024-03-08T03:20:16;26.73;;;20.00;;
12271;SDS011;6198;51.446;6.698;2024-03-08T03:22:47;30.47;;;19.57;;
12271;SDS011;6198;51.446;6.698;2024-03-08T03:25:16;24.17;;;17.70;;
12271;SDS011;6198;51.446;6.698;2024-03-08T03:27:48;26.83;;;18.70;;
12271;SDS011;6198;51.446;6.698;2024-03-08T03:30:14;25.33;;;18.03;;
12271;SDS011;6198;51.446;6.698;2024-03-08T03:32:49;32.70;;;20.50;;
12271;SDS011;6198;51.446;6.698;2024-03-08T03:35:16;26.90;;;18.33;;
12271;SDS011;6198;51.446;6.698;2024-03-08T03:37:42;27.57;;;16.83;;
12271;SDS011;6198;51.446;6.698;2024-03-08T03:40:16;27.57;;;19.27;;
12271;SDS011;6198;51.446;6.698;2024-03-08T03:42:43;28.97;;;21.33;;
12271;SDS011;6198;51.446;6.698;2024-03-08T03:45:10;26.53;;;19.90;;
12271;SDS011;6198;51.446;6.698;2024-03-08T03:47:36;31.50;;;21.47;;
12271;SDS011;6198;51.446;6.698;2024-03-08T03:50:03;33.30;;;21.70;;
12271;SDS011;6198;51.446;6.698;2024-03-08T03:52:29;30.57;;;21.00;;
12271;SDS011;6198;51.446;6.698;2024-03-08T03:54:56;25.63;;;18.50;;
12271;SDS011;6198;51.446;6.698;2024-03-08T03:57:22;28.13;;;21.53;;
12271;SDS011;6198;51.446;6.698;2024-03-08T03:59:48;31.10;;;21.33;;
12271;SDS011;6198;51.446;6.698;2024-03-08T04:02:16;28.90;;;19.37;;
12271;SDS011;6198;51.446;6.698;2024-03-08T04:04:42;31.10;;;19.87;;
12271;SDS011;6198;51.446;6.698;2024-03-08T04:07:10;26.23;;;16.27;;
12271;SDS011;6198;51.446;6.698;2024-03-08T04:09:36;29.73;;;19.13;;
12271;SDS011;6198;51.446;6.698;2024-03-08T04:12:02;28.93;;;18.93;;
12271;SDS011;6198;51.446;6.698;2024-03-08T04:14:28;26.93;;;17.40;;
12271;SDS011;6198;51.446;6.698;2024-03-08T04:16:54;31.07;;;21.13;;
12271;SDS011;6198;51.446;6.698;2024-03-08T04:19:20;34.50;;;21.53;;
12271;SDS011;6198;51.446;6.698;2024-03-08T04:21:46;27.97;;;19.13;;
12271;SDS011;6198;51.446;6.698;2024-03-08T04:24:12;29.37;;;21.73;;
12271;SDS011;6198;51.446;6.698;2024-03-08T04:26:38;28.70;;;20.57;;
12271;SDS011;6198;51.446;6.698;2024-03-08T04:29:04;30.57;;;20.00;;
12271;SDS011;6198;51.446;6.698;2024-03-08T04:31:30;30.83;;;20.97;;
12271;SDS011;6198;51.446;6.698;2024-03-08T04:33:56;25.37;;;14.97;;
12271;SDS011;6198;51.446;6.698;2024-03-08T04:36:22;33.97;;;21.73;;
12271;SDS011;6198;51.446;6.698;2024-03-08T04:38:49;28.80;;;17.20;;
12271;SDS011;6198;51.446;6.698;2024-03-08T04:41:16;20.53;;;13.03;;
12271;SDS011;6198;51.446;6.698;2024-03-08T04:43:43;30.17;;;20.83;;
12271;SDS011;6198;51.446;6.698;2024-03-08T04:46:09;30.93;;;19.70;;
12271;SDS011;6198;51.446;6.698;2024-03-08T04:48:35;31.90;;;20.30;;
12271;SDS011;6198;51.446;6.698;2024-03-08T04:51:02;28.63;;;18.73;;
12271;SDS011;6198;51.446;6.698;2024-03-08T04:53:28;34.27;;;21.43;;
12271;SDS011;6198;51.446;6.698;2024-03-08T04:55:55;33.50;;;20.50;;
12271;SDS011;6198;51.446;6.698;2024-03-08T04:58:23;21.30;;;13.70;;
12271;SDS011;6198;51.446;6.698;2024-03-08T05:00:48;31.63;;;19.10;;
12271;SDS011;6198;51.446;6.698;2024-03-08T05:03:15;22.07;;;14.13;;
12271;SDS011;6198;51.446;6.698;2024-03-08T05:05:41;31.30;;;20.27;;
12271;SDS011;6198;51.446;6.698;2024-03-08T05:08:07;32.97;;;20.93;;
12271;SDS011;6198;51.446;6.698;2024-03-08T05:10:33;25.63;;;14.50;;
12271;SDS011;6198;51.446;6.698;2024-03-08T05:12:59;22.63;;;16.07;;
12271;SDS011;6198;51.446;6.698;2024-03-08T05:15:25;28.50;;;17.43;;
12271;SDS011;6198;51.446;6.698;2024-03-08T05:17:51;32.17;;;20.50;;
12271;SDS011;6198;51.446;6.698;2024-03-08T05:20:17;35.57;;;21.97;;
12271;SDS011;6198;51.446;6.698;2024-03-08T05:22:44;26.23;;;16.23;;
12271;SDS011;6198;51.446;6.698;2024-03-08T05:25:11;28.63;;;17.60;;
12271;SDS011;6198;51.446;6.698;2024-03-08T05:27:39;30.80;;;20.77;;
12271;SDS011;6198;51.446;6.698;2024-03-08T05:30:05;34.40;;;20.57;;
12271;SDS011;6198;51.446;6.698;2024-03-08T05:32:32;37.37;;;19.87;;
12271;SDS011;6198;51.446;6.698;2024-03-08T05:34:58;30.80;;;20.77;;
12271;SDS011;6198;51.446;6.698;2024-03-08T05:37:24;36.07;;;21.83;;
12271;SDS011;6198;51.446;6.698;2024-03-08T05:39:50;38.03;;;19.63;;
12271;SDS011;6198;51.446;6.698;2024-03-08T05:42:16;31.70;;;19.97;;
12271;SDS011;6198;51.446;6.698;2024-03-08T05:44:42;28.23;;;15.23;;
12271;SDS011;6198;51.446;6.698;2024-03-08T05:47:08;26.90;;;18.37;;
12271;SDS011;6198;51.446;6.698;2024-03-08T05:49:34;36.20;;;22.97;;
12271;SDS011;6198;51.446;6.698;2024-03-08T05:52:00;37.17;;;23.90;;
12271;SDS011;6198;51.446;6.698;2024-03-08T05:54:26;34.83;;;21.50;;
12271;SDS011;6198;51.446;6.698;2024-03-08T05:56:52;37.03;;;21.77;;
12271;SDS011;6198;51.446;6.698;2024-03-08T05:59:19;38.03;;;24.37;;
12271;SDS011;6198;51.446;6.698;2024-03-08T06:01:45;30.47;;;18.73;;
12271;SDS011;6198;51.446;6.698;2024-03-08T06:04:12;34.00;;;21.80;;
12271;SDS011;6198;51.446;6.698;2024-03-08T06:06:39;31.87;;;19.10;;
12271;SDS011;6198;51.446;6.698;2024-03-08T06:09:05;33.30;;;21.30;;
12271;SDS011;6198;51.446;6.698;2024-03-08T06:11:36;37.60;;;24.40;;
12271;SDS011;6198;51.446;6.698;2024-03-08T06:14:03;34.70;;;23.57;;
12271;SDS011;6198;51.446;6.698;2024-03-08T06:16:29;34.23;;;23.93;;
12271;SDS011;6198;51.446;6.698;2024-03-08T06:18:55;32.17;;;20.20;;
12271;SDS011;6198;51.446;6.698;2024-03-08T06:21:22;34.93;;;19.70;;
12271;SDS011;6198;51.446;6.698;2024-03-08T06:23:48;38.60;;;25.10;;
12271;SDS011;6198;51.446;6.698;2024-03-08T06:26:14;33.97;;;21.23;;
12271;SDS011;6198;51.446;6.698;2024-03-08T06:28:40;34.53;;;20.83;;
12271;SDS011;6198;51.446;6.698;2024-03-08T06:31:06;33.30;;;22.53;;
12271;SDS011;6198;51.446;6.698;2024-03-08T06:33:33;34.27;;;22.70;;
12271;SDS011;6198;51.446;6.698;2024-03-08T06:36:00;43.47;;;26.27;;
12271;SDS011;6198;51.446;6.698;2024-03-08T06:38:26;32.57;;;19.50;;
12271;SDS011;6198;51.446;6.698;2024-03-08T06:40:52;33.07;;;20.37;;
12271;SDS011;6198;51.446;6.698;2024-03-08T06:43:19;38.07;;;22.90;;
12271;SDS011;6198;51.446;6.698;2024-03-08T06:45:46;39.50;;;21.97;;
12271;SDS011;6198;51.446;6.698;2024-03-08T06:48:17;37.30;;;22.27;;
12271;SDS011;6198;51.446;6.698;2024-03-08T06:50:44;37.47;;;25.53;;
12271;SDS011;6198;51.446;6.698;2024-03-08T06:53:10;40.67;;;24.17;;
12271;SDS011;6198;51.446;6.698;2024-03-08T06:55:36;38.70;;;25.63;;
12271;SDS011;6198;51.446;6.698;2024-03-08T06:58:02;36.50;;;20.07;;
12271;SDS011;6198;51.446;6.698;2024-03-08T07:00:28;36.20;;;24.00;;
12271;SDS011;6198;51.446;6.698;2024-03-08T07:02:55;35.83;;;22.23;;
12271;SDS011;6198;51.446;6.698;2024-03-08T07:05:22;37.67;;;25.23;;
12271;SDS011;6198;51.446;6.698;2024-03-08T07:07:49;36.23;;;23.17;;
12271;SDS011;6198;51.446;6.698;2024-03-08T07:10:16;35.50;;;24.10;;
12271;SDS011;6198;51.446;6.698;2024-03-08T07:12:42;39.80;;;22.90;;
12271;SDS011;6198;51.446;6.698;2024-03-08T07:15:08;34.80;;;24.53;;
12271;SDS011;6198;51.446;6.698;2024-03-08T07:17:39;35.10;;;23.10;;
12271;SDS011;6198;51.446;6.698;2024-03-08T07:20:05;32.10;;;18.90;;
12271;SDS011;6198;51.446;6.698;2024-03-08T07:22:35;39.73;;;26.17;;
12271;SDS011;6198;51.446;6.698;2024-03-08T07:25:02;35.53;;;23.43;;
12271;SDS011;6198;51.446;6.698;2024-03-08T07:27:50;31.70;;;21.07;;
12271;SDS011;6198;51.446;6.698;2024-03-08T07:30:17;36.37;;;22.30;;
12271;SDS011;6198;51.446;6.698;2024-03-08T07:33:02;36.83;;;22.63;;
12271;SDS011;6198;51.446;6.698;2024-03-08T07:35:28;29.37;;;15.43;;
12271;SDS011;6198;51.446;6.698;2024-03-08T07:37:54;29.47;;;18.13;;
12271;SDS011;6198;51.446;6.698;2024-03-08T07:40:21;34.23;;;21.83;;
12271;SDS011;6198;51.446;6.698;2024-03-08T07:42:48;18.93;;;10.90;;
12271;SDS011;6198;51.446;6.698;2024-03-08T07:45:14;31.50;;;16.43;;
12271;SDS011;6198;51.446;6.698;2024-03-08T07:47:41;33.67;;;21.23;;
12271;SDS011;6198;51.446;6.698;2024-03-08T07:50:07;35.27;;;22.07;;
12271;SDS011;6198;51.446;6.698;2024-03-08T07:52:33;35.90;;;20.50;;
12271;SDS011;6198;51.446;6.698;2024-03-08T07:54:59;22.80;;;15.00;;
12271;SDS011;6198;51.446;6.698;2024-03-08T07:57:25;34.70;;;19.73;;
12271;SDS011;6198;51.446;6.698;2024-03-08T07:59:51;34.67;;;19.97;;
12271;SDS011;6198;51.446;6.698;2024-03-08T08:02:17;36.10;;;21.87;;
12271;SDS011;6198;51.446;6.698;2024-03-08T08:04:43;26.57;;;16.53;;
12271;SDS011;6198;51.446;6.698;2024-03-08T08:07:12;36.20;;;20.10;;
12271;SDS011;6198;51.446;6.698;2024-03-08T08:09:39;32.47;;;18.40;;
12271;SDS011;6198;51.446;6.698;2024-03-08T08:12:07;18.67;;;11.77;;
12271;SDS011;6198;51.446;6.698;2024-03-08T08:14:36;26.07;;;17.30;;
12271;SDS011;6198;51.446;6.698;2024-03-08T08:17:02;30.47;;;17.23;;
12271;SDS011;6198;51.446;6.698;2024-03-08T08:19:29;25.93;;;16.03;;
12271;SDS011;6198;51.446;6.698;2024-03-08T08:21:55;32.37;;;20.60;;
12271;SDS011;6198;51.446;6.698;2024-03-08T08:24:21;29.07;;;18.43;;
12271;SDS011;6198;51.446;6.698;2024-03-08T08:26:47;34.97;;;22.27;;
12271;SDS011;6198;51.446;6.698;2024-03-08T08:29:13;30.27;;;20.93;;
12271;SDS011;6198;51.446;6.698;2024-03-08T08:31:39;31.47;;;21.40;;
12271;SDS011;6198;51.446;6.698;2024-03-08T08:34:05;34.07;;;20.53;;
12271;SDS011;6198;51.446;6.698;2024-03-08T08:36:31;31.57;;;18.77;;
12271;SDS011;6198;51.446;6.698;2024-03-08T08:38:59;33.80;;;19.30;;
12271;SDS011;6198;51.446;6.698;2024-03-08T08:41:25;40.57;;;21.17;;
12271;SDS011;6198;51.446;6.698;2024-03-08T08:43:52;33.07;;;19.27;;
12271;SDS011;6198;51.446;6.698;2024-03-08T08:46:18;29.13;;;19.77;;
12271;SDS011;6198;51.446;6.698;2024-03-08T08:48:44;29.80;;;19.23;;
12271;SDS011;6198;51.446;6.698;2024-03-08T08:51:11;25.57;;;16.53;;
12271;SDS011;6198;51.446;6.698;2024-03-08T08:53:38;32.07;;;19.10;;
12271;SDS011;6198;51.446;6.698;2024-03-08T08:56:05;30.00;;;18.67;;
12271;SDS011;6198;51.446;6.698;2024-03-08T08:58:33;26.97;;;16.10;;
12271;SDS011;6198;51.446;6.698;2024-03-08T09:00:59;31.63;;;21.03;;
12271;SDS011;6198;51.446;6.698;2024-03-08T09:03:25;32.23;;;18.20;;
12271;SDS011;6198;51.446;6.698;2024-03-08T09:05:53;31.87;;;19.23;;
12271;SDS011;6198;51.446;6.698;2024-03-08T09:08:19;19.07;;;11.93;;
12271;SDS011;6198;51.446;6.698;2024-03-08T09:10:45;20.37;;;13.90;;
12271;SDS011;6198;51.446;6.698;2024-03-08T09:13:13;27.93;;;17.30;;
12271;SDS011;6198;51.446;6.698;2024-03-08T09:15:39;24.07;;;15.03;;
12271;SDS011;6198;51.446;6.698;2024-03-08T09:18:06;26.77;;;17.33;;
12271;SDS011;6198;51.446;6.698;2024-03-08T09:20:34;28.27;;;17.50;;
12271;SDS011;6198;51.446;6.698;2024-03-08T09:23:00;26.80;;;15.03;;
12271;SDS011;6198;51.446;6.698;2024-03-08T09:25:26;22.83;;;12.47;;
12271;SDS011;6198;51.446;6.698;2024-03-08T09:27:53;22.13;;;12.93;;
12271;SDS011;6198;51.446;6.698;2024-03-08T09:30:19;26.73;;;18.47;;
12271;SDS011;6198;51.446;6.698;2024-03-08T09:32:46;24.67;;;13.73;;
12271;SDS011;6198;51.446;6.698;2024-03-08T09:35:12;20.80;;;12.17;;
12271;SDS011;6198;51.446;6.698;2024-03-08T09:37:38;25.60;;;15.50;;
12271;SDS011;6198;51.446;6.698;2024-03-08T09:40:04;21.70;;;12.27;;
12271;SDS011;6198;51.446;6.698;2024-03-08T09:42:34;23.67;;;14.97;;
12271;SDS011;6198;51.446;6.698;2024-03-08T09:45:03;22.40;;;13.73;;
12271;SDS011;6198;51.446;6.698;2024-03-08T09:47:29;21.23;;;13.80;;
12271;SDS011;6198;51.446;6.698;2024-03-08T09:49:58;23.37;;;15.63;;
12271;SDS011;6198;51.446;6.698;2024-03-08T09:52:24;21.23;;;12.63;;
12271;SDS011;6198;51.446;6.698;2024-03-08T09:54:51;18.57;;;11.73;;
12271;SDS011;6198;51.446;6.698;2024-03-08T09:57:17;25.53;;;15.63;;
12271;SDS011;6198;51.446;6.698;2024-03-08T09:59:44;24.53;;;13.20;;
12271;SDS011;6198;51.446;6.698;2024-03-08T10:02:16;23.33;;;13.93;;
12271;SDS011;6198;51.446;6.698;2024-03-08T10:04:42;30.87;;;17.47;;
12271;SDS011;6198;51.446;6.698;2024-03-08T10:07:08;19.40;;;12.33;;
12271;SDS011;6198;51.446;6.698;2024-03-08T10:09:34;23.60;;;15.40;;
12271;SDS011;6198;51.446;6.698;2024-03-08T10:12:00;25.27;;;15.47;;
12271;SDS011;6198;51.446;6.698;2024-03-08T10:14:27;17.33;;;11.47;;
12271;SDS011;6198;51.446;6.698;2024-03-08T10:16:53;21.70;;;15.23;;
12271;SDS011;6198;51.446;6.698;2024-03-08T10:19:24;24.60;;;15.77;;
12271;SDS011;6198;51.446;6.698;2024-03-08T10:21:50;27.13;;;17.17;;
12271;SDS011;6198;51.446;6.698;2024-03-08T10:24:22;21.10;;;13.73;;
12271;SDS011;6198;51.446;6.698;2024-03-08T10:26:48;27.43;;;18.63;;
12271;SDS011;6198;51.446;6.698;2024-03-08T10:29:16;23.63;;;14.53;;
12271;SDS011;6198;51.446;6.698;2024-03-08T10:31:44;27.70;;;16.93;;
12271;SDS011;6198;51.446;6.698;2024-03-08T10:34:10;23.90;;;15.63;;
12271;SDS011;6198;51.446;6.698;2024-03-08T10:36:36;27.73;;;14.33;;
12271;SDS011;6198;51.446;6.698;2024-03-08T10:39:03;13.73;;;8.67;;
12271;SDS011;6198;51.446;6.698;2024-03-08T10:41:32;25.67;;;14.83;;
12271;SDS011;6198;51.446;6.698;2024-03-08T10:44:09;17.90;;;10.90;;
12271;SDS011;6198;51.446;6.698;2024-03-08T10:46:44;15.87;;;9.83;;
12271;SDS011;6198;51.446;6.698;2024-03-08T10:49:16;22.70;;;12.53;;
12271;SDS011;6198;51.446;6.698;2024-03-08T10:51:42;20.57;;;13.43;;
12271;SDS011;6198;51.446;6.698;2024-03-08T10:54:09;20.50;;;11.87;;
12271;SDS011;6198;51.446;6.698;2024-03-08T10:56:36;17.00;;;11.57;;
12271;SDS011;6198;51.446;6.698;2024-03-08T10:59:02;21.97;;;15.27;;
12271;SDS011;6198;51.446;6.698;2024-03-08T11:01:29;25.27;;;10.00;;
12271;SDS011;6198;51.446;6.698;2024-03-08T11:03:55;25.20;;;14.90;;
12271;SDS011;6198;51.446;6.698;2024-03-08T11:06:23;19.83;;;12.73;;
12271;SDS011;6198;51.446;6.698;2024-03-08T11:08:50;22.77;;;11.33;;
12271;SDS011;6198;51.446;6.698;2024-03-08T11:11:29;12.00;;;8.30;;
12271;SDS011;6198;51.446;6.698;2024-03-08T11:13:56;20.03;;;13.40;;
12271;SDS011;6198;51.446;6.698;2024-03-08T11:18:58;16.83;;;12.23;;
12271;SDS011;6198;51.446;6.698;2024-03-08T11:21:29;17.77;;;11.67;;
12271;SDS011;6198;51.446;6.698;2024-03-08T11:24:14;18.80;;;11.43;;
12271;SDS011;6198;51.446;6.698;2024-03-08T11:26:41;17.70;;;12.33;;
12271;SDS011;6198;51.446;6.698;2024-03-08T11:31:52;21.97;;;11.87;;
12271;SDS011;6198;51.446;6.698;2024-03-08T11:34:19;19.60;;;11.63;;
12271;SDS011;6198;51.446;6.698;2024-03-08T11:36:47;20.80;;;13.53;;
12271;SDS011;6198;51.446;6.698;2024-03-08T11:39:13;22.53;;;14.30;;
12271;SDS011;6198;51.446;6.698;2024-03-08T11:41:40;21.50;;;12.57;;
12271;SDS011;6198;51.446;6.698;2024-03-08T11:44:10;23.97;;;15.63;;
12271;SDS011;6198;51.446;6.698;2024-03-08T11:46:41;20.50;;;12.63;;
12271;SDS011;6198;51.446;6.698;2024-03-08T11:49:11;13.50;;;9.57;;
12271;SDS011;6198;51.446;6.698;2024-03-08T11:51:37;28.80;;;18.13;;
12271;SDS011;6198;51.446;6.698;2024-03-08T11:54:03;16.67;;;10.97;;
12271;SDS011;6198;51.446;6.698;2024-03-08T11:56:31;22.40;;;13.80;;
12271;SDS011;6198;51.446;6.698;2024-03-08T11:58:57;25.43;;;15.13;;
12271;SDS011;6198;51.446;6.698;2024-03-08T12:01:23;23.83;;;16.30;;
12271;SDS011;6198;51.446;6.698;2024-03-08T12:03:53;19.87;;;14.47;;
12271;SDS011;6198;51.446;6.698;2024-03-08T12:06:19;21.00;;;13.67;;
12271;SDS011;6198;51.446;6.698;2024-03-08T12:08:46;13.33;;;9.70;;
12271;SDS011;6198;51.446;6.698;2024-03-08T12:11:15;22.57;;;13.27;;
12271;SDS011;6198;51.446;6.698;2024-03-08T12:13:44;22.30;;;13.60;;
12271;SDS011;6198;51.446;6.698;2024-03-08T12:16:11;20.43;;;10.93;;
12271;SDS011;6198;51.446;6.698;2024-03-08T12:18:38;24.10;;;17.57;;
12271;SDS011;6198;51.446;6.698;2024-03-08T12:21:07;19.23;;;11.27;;
12271;SDS011;6198;51.446;6.698;2024-03-08T12:23:34;20.20;;;11.20;;
12271;SDS011;6198;51.446;6.698;2024-03-08T12:26:13;18.10;;;11.30;;
12271;SDS011;6198;51.446;6.698;2024-03-08T12:28:40;21.10;;;13.70;;
12271;SDS011;6198;51.446;6.698;2024-03-08T12:31:07;16.67;;;11.07;;
12271;SDS011;6198;51.446;6.698;2024-03-08T12:33:37;18.17;;;11.23;;
12271;SDS011;6198;51.446;6.698;2024-03-08T12:36:03;20.83;;;13.13;;
12271;SDS011;6198;51.446;6.698;2024-03-08T12:38:32;19.20;;;12.63;;
12271;SDS011;6198;51.446;6.698;2024-03-08T12:41:00;20.40;;;15.27;;
12271;SDS011;6198;51.446;6.698;2024-03-08T12:43:26;22.60;;;13.63;;
12271;SDS011;6198;51.446;6.698;2024-03-08T12:45:55;24.03;;;15.00;;
12271;SDS011;6198;51.446;6.698;2024-03-08T12:48:21;20.50;;;12.77;;
12271;SDS011;6198;51.446;6.698;2024-03-08T12:50:47;17.63;;;12.70;;
12271;SDS011;6198;51.446;6.698;2024-03-08T12:53:13;14.33;;;9.67;;
12271;SDS011;6198;51.446;6.698;2024-03-08T12:55:39;20.53;;;13.87;;
12271;SDS011;6198;51.446;6.698;2024-03-08T12:58:05;18.33;;;11.80;;
12271;SDS011;6198;51.446;6.698;2024-03-08T13:00:33;17.20;;;9.87;;
12271;SDS011;6198;51.446;6.698;2024-03-08T13:03:01;16.93;;;11.27;;
12271;SDS011;6198;51.446;6.698;2024-03-08T13:05:27;20.40;;;14.40;;
12271;SDS011;6198;51.446;6.698;2024-03-08T13:07:53;18.30;;;13.53;;
12271;SDS011;6198;51.446;6.698;2024-03-08T13:10:19;13.80;;;10.00;;
12271;SDS011;6198;51.446;6.698;2024-03-08T13:12:46;20.63;;;14.50;;
12271;SDS011;6198;51.446;6.698;2024-03-08T13:15:12;21.60;;;14.83;;
12271;SDS011;6198;51.446;6.698;2024-03-08T13:17:45;11.60;;;8.63;;
12271;SDS011;6198;51.446;6.698;2024-03-08T13:20:11;19.73;;;13.43;;
12271;SDS011;6198;51.446;6.698;2024-03-08T13:22:44;16.40;;;11.97;;
12271;SDS011;6198;51.446;6.698;2024-03-08T13:25:12;17.67;;;11.83;;
12271;SDS011;6198;51.446;6.698;2024-03-08T13:27:41;20.40;;;13.63;;
12271;SDS011;6198;51.446;6.698;2024-03-08T13:30:08;16.20;;;11.03;;
12271;SDS011;6198;51.446;6.698;2024-03-08T13:32:38;16.17;;;9.70;;
12271;SDS011;6198;51.446;6.698;2024-03-08T13:35:04;12.03;;;7.93;;
12271;SDS011;6198;51.446;6.698;2024-03-08T13:37:37;10.10;;;7.13;;
12271;SDS011;6198;51.446;6.698;2024-03-08T13:40:03;10.23;;;5.90;;
12271;SDS011;6198;51.446;6.698;2024-03-08T13:42:30;10.07;;;5.57;;
12271;SDS011;6198;51.446;6.698;2024-03-08T13:44:56;9.93;;;6.87;;
12271;SDS011;6198;51.446;6.698;2024-03-08T13:47:22;12.50;;;6.73;;
12271;SDS011;6198;51.446;6.698;2024-03-08T13:49:49;8.67;;;6.03;;
12271;SDS011;6198;51.446;6.698;2024-03-08T13:52:15;8.63;;;6.67;;
12271;SDS011;6198;51.446;6.698;2024-03-08T13:54:41;10.57;;;6.77;;
12271;SDS011;6198;51.446;6.698;2024-03-08T13:57:08;8.90;;;6.40;;
12271;SDS011;6198;51.446;6.698;2024-03-08T13:59:34;12.80;;;6.20;;
12271;SDS011;6198;51.446;6.698;2024-03-08T14:02:00;9.17;;;6.03;;
12271;SDS011;6198;51.446;6.698;2024-03-08T14:04:27;7.00;;;4.87;;
12271;SDS011;6198;51.446;6.698;2024-03-08T14:06:53;9.77;;;6.93;;
12271;SDS011;6198;51.446;6.698;2024-03-08T14:09:26;7.87;;;5.50;;
12271;SDS011;6198;51.446;6.698;2024-03-08T14:11:54;11.33;;;6.57;;
12271;SDS011;6198;51.446;6.698;2024-03-08T14:14:23;12.43;;;7.87;;
12271;SDS011;6198;51.446;6.698;2024-03-08T14:16:49;11.60;;;7.13;;
12271;SDS011;6198;51.446;6.698;2024-03-08T14:19:18;10.27;;;8.03;;
12271;SDS011;6198;51.446;6.698;2024-03-08T14:21:43;11.67;;;7.53;;
12271;SDS011;6198;51.446;6.698;2024-03-08T14:24:09;9.73;;;8.10;;
12271;SDS011;6198;51.446;6.698;2024-03-08T14:26:35;8.07;;;6.47;;
12271;SDS011;6198;51.446;6.698;2024-03-08T14:29:03;9.93;;;6.43;;
12271;SDS011;6198;51.446;6.698;2024-03-08T14:31:30;9.70;;;6.83;;
12271;SDS011;6198;51.446;6.698;2024-03-08T14:33:56;7.47;;;5.50;;
12271;SDS011;6198;51.446;6.698;2024-03-08T14:36:23;11.10;;;6.37;;
12271;SDS011;6198;51.446;6.698;2024-03-08T14:38:50;10.03;;;5.07;;
12271;SDS011;6198;51.446;6.698;2024-03-08T14:41:17;8.80;;;6.00;;
12271;SDS011;6198;51.446;6.698;2024-03-08T14:43:43;4.60;;;4.13;;